JP-0084 weather

Umaki Heliport
Umaki, Kagawa Prefecture, Japan

Public forecast

Using degrees Celsius for public forecast. Weather courtesy of forecast.io.

METAR (pilot weather report)

Closest report is Takamatsu Airport, 21.4 nm (39.7 km) SW. Retrieved 2019/05/23 10:00 UTC (16 minutes ago):

RJOT 231000Z 26009KT 9999 FEW035 SCT/// 23/07 Q1009

TAF (pilot weather forecast)

Closest forecast is Takamatsu Airport, 21.4 nm (39.7 km) SW. Retrieved 2019/05/23 06:00 UTC (4 hours ago):

TAF RJOT 230509Z 2306/2412 25007KT 9999 FEW030 BECMG 2409/2412 15005KT